Terminal Aerodrome Forecast
Issued by NWS

Home | Current Version | Previous Version | Text Only | Print | Product List | Glossary On
Versions: 1 2 3 4 5 6 7 8 9 10 11 12 13 14 15
000
FTPA31 PHFO 271730
TAFHJR
TAF
PHJR 271730Z 2718/2818 07005KT P6SM SCT250
     FM272300 14010KT P6SM FEW025 SCT040 SCT250
     FM280400 VRB03KT P6SM FEW020 SCT040=

USA.gov is the U.S. government's official web portal to all federal, state and local government web resources and services.